sensor_id;sensor_type;location;lat;lon;timestamp;temperature;humidity
15133;DHT22;7667;51.232;17.110;2023-09-12T00:00:49;15.90;99.90
15133;DHT22;7667;51.232;17.110;2023-09-12T00:03:21;15.80;99.90
15133;DHT22;7667;51.232;17.110;2023-09-12T00:05:57;15.70;99.90
15133;DHT22;7667;51.232;17.110;2023-09-12T00:08:26;15.60;99.90
15133;DHT22;7667;51.232;17.110;2023-09-12T00:11:07;15.60;99.90
15133;DHT22;7667;51.232;17.110;2023-09-12T00:13:40;15.50;99.90
15133;DHT22;7667;51.232;17.110;2023-09-12T00:16:08;15.40;99.90
15133;DHT22;7667;51.232;17.110;2023-09-12T00:18:39;15.40;99.90
15133;DHT22;7667;51.232;17.110;2023-09-12T00:21:07;15.30;99.90
15133;DHT22;7667;51.232;17.110;2023-09-12T00:23:35;15.30;99.90
15133;DHT22;7667;51.232;17.110;2023-09-12T00:26:02;15.20;99.90
15133;DHT22;7667;51.232;17.110;2023-09-12T00:28:30;15.30;99.90
15133;DHT22;7667;51.232;17.110;2023-09-12T00:30:57;15.20;99.90
15133;DHT22;7667;51.232;17.110;2023-09-12T00:33:25;15.20;99.90
15133;DHT22;7667;51.232;17.110;2023-09-12T00:35:52;15.20;99.90
15133;DHT22;7667;51.232;17.110;2023-09-12T00:38:20;15.20;99.90
15133;DHT22;7667;51.232;17.110;2023-09-12T00:40:47;15.20;99.90
15133;DHT22;7667;51.232;17.110;2023-09-12T00:43:16;15.10;99.90
15133;DHT22;7667;51.232;17.110;2023-09-12T00:45:43;15.10;99.90
15133;DHT22;7667;51.232;17.110;2023-09-12T00:48:13;14.90;99.90
15133;DHT22;7667;51.232;17.110;2023-09-12T00:50:42;14.90;99.90
15133;DHT22;7667;51.232;17.110;2023-09-12T00:53:11;14.80;99.90
15133;DHT22;7667;51.232;17.110;2023-09-12T00:55:42;14.80;99.90
15133;DHT22;7667;51.232;17.110;2023-09-12T00:58:14;14.80;99.90
15133;DHT22;7667;51.232;17.110;2023-09-12T01:00:42;14.90;99.90
15133;DHT22;7667;51.232;17.110;2023-09-12T01:03:10;14.90;99.90
15133;DHT22;7667;51.232;17.110;2023-09-12T01:05:38;14.80;99.90
15133;DHT22;7667;51.232;17.110;2023-09-12T01:08:06;14.80;99.90
15133;DHT22;7667;51.232;17.110;2023-09-12T01:10:34;14.80;99.90
15133;DHT22;7667;51.232;17.110;2023-09-12T01:13:01;14.70;99.90
15133;DHT22;7667;51.232;17.110;2023-09-12T01:15:29;14.80;99.90
15133;DHT22;7667;51.232;17.110;2023-09-12T01:17:57;14.80;99.90
15133;DHT22;7667;51.232;17.110;2023-09-12T01:20:31;14.80;99.90
15133;DHT22;7667;51.232;17.110;2023-09-12T01:26:45;14.70;99.90
15133;DHT22;7667;51.232;17.110;2023-09-12T01:29:21;14.80;99.90
15133;DHT22;7667;51.232;17.110;2023-09-12T01:31:51;14.80;99.90
15133;DHT22;7667;51.232;17.110;2023-09-12T01:34:20;14.80;99.90
15133;DHT22;7667;51.232;17.110;2023-09-12T01:36:47;14.70;99.90
15133;DHT22;7667;51.232;17.110;2023-09-12T01:39:15;14.70;99.90
15133;DHT22;7667;51.232;17.110;2023-09-12T01:41:45;14.70;99.90
15133;DHT22;7667;51.232;17.110;2023-09-12T01:44:14;14.80;99.90
15133;DHT22;7667;51.232;17.110;2023-09-12T01:46:43;14.90;99.90
15133;DHT22;7667;51.232;17.110;2023-09-12T01:49:12;14.90;99.90
15133;DHT22;7667;51.232;17.110;2023-09-12T01:51:41;14.80;99.90
15133;DHT22;7667;51.232;17.110;2023-09-12T01:54:09;14.80;99.90
15133;DHT22;7667;51.232;17.110;2023-09-12T01:56:37;14.80;99.90
15133;DHT22;7667;51.232;17.110;2023-09-12T01:59:06;14.80;99.90
15133;DHT22;7667;51.232;17.110;2023-09-12T02:01:33;14.80;99.90
15133;DHT22;7667;51.232;17.110;2023-09-12T02:04:01;14.80;99.90
15133;DHT22;7667;51.232;17.110;2023-09-12T02:06:29;14.80;99.90
15133;DHT22;7667;51.232;17.110;2023-09-12T02:08:56;14.80;99.90
15133;DHT22;7667;51.232;17.110;2023-09-12T02:11:26;14.70;99.90
15133;DHT22;7667;51.232;17.110;2023-09-12T02:13:55;14.70;99.90
15133;DHT22;7667;51.232;17.110;2023-09-12T02:16:22;14.70;99.90
15133;DHT22;7667;51.232;17.110;2023-09-12T02:18:50;14.70;99.90
15133;DHT22;7667;51.232;17.110;2023-09-12T02:21:18;14.70;99.90
15133;DHT22;7667;51.232;17.110;2023-09-12T02:23:45;14.70;99.90
15133;DHT22;7667;51.232;17.110;2023-09-12T02:26:13;14.80;99.90
15133;DHT22;7667;51.232;17.110;2023-09-12T02:28:41;14.90;99.90
15133;DHT22;7667;51.232;17.110;2023-09-12T02:31:12;14.80;99.90
15133;DHT22;7667;51.232;17.110;2023-09-12T02:33:40;14.80;99.90
15133;DHT22;7667;51.232;17.110;2023-09-12T02:36:08;14.70;99.90
15133;DHT22;7667;51.232;17.110;2023-09-12T02:38:36;14.60;99.90
15133;DHT22;7667;51.232;17.110;2023-09-12T02:41:03;14.50;99.90
15133;DHT22;7667;51.232;17.110;2023-09-12T02:43:31;14.50;99.90
15133;DHT22;7667;51.232;17.110;2023-09-12T02:45:59;14.50;99.90
15133;DHT22;7667;51.232;17.110;2023-09-12T02:48:26;14.50;99.90
15133;DHT22;7667;51.232;17.110;2023-09-12T02:50:54;14.60;99.90
15133;DHT22;7667;51.232;17.110;2023-09-12T02:53:22;14.60;99.90
15133;DHT22;7667;51.232;17.110;2023-09-12T02:55:51;14.50;99.90
15133;DHT22;7667;51.232;17.110;2023-09-12T02:58:19;14.40;99.90
15133;DHT22;7667;51.232;17.110;2023-09-12T03:00:47;14.40;99.90
15133;DHT22;7667;51.232;17.110;2023-09-12T03:03:17;14.40;99.90
15133;DHT22;7667;51.232;17.110;2023-09-12T03:05:45;14.40;99.90
15133;DHT22;7667;51.232;17.110;2023-09-12T03:08:12;14.30;99.90
15133;DHT22;7667;51.232;17.110;2023-09-12T03:10:40;14.30;99.90
15133;DHT22;7667;51.232;17.110;2023-09-12T03:13:07;14.30;99.90
15133;DHT22;7667;51.232;17.110;2023-09-12T03:15:38;14.40;99.90
15133;DHT22;7667;51.232;17.110;2023-09-12T03:18:09;14.40;99.90
15133;DHT22;7667;51.232;17.110;2023-09-12T03:20:40;14.40;99.90
15133;DHT22;7667;51.232;17.110;2023-09-12T03:23:09;14.30;99.90
15133;DHT22;7667;51.232;17.110;2023-09-12T03:25:37;14.20;99.90
15133;DHT22;7667;51.232;17.110;2023-09-12T03:28:06;14.10;99.90
15133;DHT22;7667;51.232;17.110;2023-09-12T03:30:35;14.00;99.90
15133;DHT22;7667;51.232;17.110;2023-09-12T03:33:05;14.00;99.90
15133;DHT22;7667;51.232;17.110;2023-09-12T03:35:33;14.00;99.90
15133;DHT22;7667;51.232;17.110;2023-09-12T03:38:01;14.00;99.90
15133;DHT22;7667;51.232;17.110;2023-09-12T03:40:29;13.90;99.90
15133;DHT22;7667;51.232;17.110;2023-09-12T03:42:57;13.80;99.90
15133;DHT22;7667;51.232;17.110;2023-09-12T03:45:25;13.80;99.90
15133;DHT22;7667;51.232;17.110;2023-09-12T03:47:53;13.80;99.90
15133;DHT22;7667;51.232;17.110;2023-09-12T03:50:20;13.80;99.90
15133;DHT22;7667;51.232;17.110;2023-09-12T03:52:48;13.80;99.90
15133;DHT22;7667;51.232;17.110;2023-09-12T03:55:16;13.70;99.90
15133;DHT22;7667;51.232;17.110;2023-09-12T03:57:43;13.70;99.90
15133;DHT22;7667;51.232;17.110;2023-09-12T04:00:11;13.70;99.90
15133;DHT22;7667;51.232;17.110;2023-09-12T04:02:40;13.70;99.90
15133;DHT22;7667;51.232;17.110;2023-09-12T04:05:08;13.60;99.90
15133;DHT22;7667;51.232;17.110;2023-09-12T04:07:36;13.60;99.90
15133;DHT22;7667;51.232;17.110;2023-09-12T04:10:04;13.60;99.90
15133;DHT22;7667;51.232;17.110;2023-09-12T04:12:32;13.60;99.90
15133;DHT22;7667;51.232;17.110;2023-09-12T04:15:00;13.60;99.90
15133;DHT22;7667;51.232;17.110;2023-09-12T04:17:27;13.60;99.90
15133;DHT22;7667;51.232;17.110;2023-09-12T04:19:55;13.70;99.90
15133;DHT22;7667;51.232;17.110;2023-09-12T04:22:22;13.80;99.90
15133;DHT22;7667;51.232;17.110;2023-09-12T04:24:50;13.90;99.90
15133;DHT22;7667;51.232;17.110;2023-09-12T04:27:17;13.90;99.90
15133;DHT22;7667;51.232;17.110;2023-09-12T04:29:45;13.90;99.90
15133;DHT22;7667;51.232;17.110;2023-09-12T04:32:13;13.80;99.90
15133;DHT22;7667;51.232;17.110;2023-09-12T04:34:43;13.80;99.90
15133;DHT22;7667;51.232;17.110;2023-09-12T04:37:10;13.80;99.90
15133;DHT22;7667;51.232;17.110;2023-09-12T04:39:38;13.70;99.90
15133;DHT22;7667;51.232;17.110;2023-09-12T04:42:06;13.60;99.90
15133;DHT22;7667;51.232;17.110;2023-09-12T04:44:40;13.70;99.90
15133;DHT22;7667;51.232;17.110;2023-09-12T04:47:09;13.80;99.90
15133;DHT22;7667;51.232;17.110;2023-09-12T04:49:36;13.70;99.90
15133;DHT22;7667;51.232;17.110;2023-09-12T04:52:04;13.70;99.90
15133;DHT22;7667;51.232;17.110;2023-09-12T04:54:32;13.70;99.90
15133;DHT22;7667;51.232;17.110;2023-09-12T04:57:00;13.70;99.90
15133;DHT22;7667;51.232;17.110;2023-09-12T04:59:27;13.70;99.90
15133;DHT22;7667;51.232;17.110;2023-09-12T05:01:55;13.60;99.90
15133;DHT22;7667;51.232;17.110;2023-09-12T05:04:22;13.70;99.90
15133;DHT22;7667;51.232;17.110;2023-09-12T05:06:50;13.80;99.90
15133;DHT22;7667;51.232;17.110;2023-09-12T05:09:18;13.90;99.90
15133;DHT22;7667;51.232;17.110;2023-09-12T05:11:45;14.00;99.90
15133;DHT22;7667;51.232;17.110;2023-09-12T05:14:13;14.10;99.90
15133;DHT22;7667;51.232;17.110;2023-09-12T05:16:40;14.20;99.90
15133;DHT22;7667;51.232;17.110;2023-09-12T05:19:08;14.20;99.90
15133;DHT22;7667;51.232;17.110;2023-09-12T05:21:36;14.30;99.90
15133;DHT22;7667;51.232;17.110;2023-09-12T05:24:04;14.40;99.90
15133;DHT22;7667;51.232;17.110;2023-09-12T05:26:32;14.40;99.90
15133;DHT22;7667;51.232;17.110;2023-09-12T05:28:59;14.50;99.90
15133;DHT22;7667;51.232;17.110;2023-09-12T05:31:27;14.60;99.90
15133;DHT22;7667;51.232;17.110;2023-09-12T05:33:55;14.70;99.90
15133;DHT22;7667;51.232;17.110;2023-09-12T05:36:23;14.80;99.90
15133;DHT22;7667;51.232;17.110;2023-09-12T05:38:51;14.90;99.90
15133;DHT22;7667;51.232;17.110;2023-09-12T05:41:19;15.00;99.90
15133;DHT22;7667;51.232;17.110;2023-09-12T05:43:47;15.10;99.90
15133;DHT22;7667;51.232;17.110;2023-09-12T05:46:14;15.10;99.90
15133;DHT22;7667;51.232;17.110;2023-09-12T05:48:42;15.20;99.90
15133;DHT22;7667;51.232;17.110;2023-09-12T05:51:10;15.20;99.90
15133;DHT22;7667;51.232;17.110;2023-09-12T05:53:38;15.20;99.90
15133;DHT22;7667;51.232;17.110;2023-09-12T05:56:06;15.30;99.90
15133;DHT22;7667;51.232;17.110;2023-09-12T05:58:33;15.40;99.90
15133;DHT22;7667;51.232;17.110;2023-09-12T06:01:02;15.50;99.90
15133;DHT22;7667;51.232;17.110;2023-09-12T06:03:30;15.60;99.90
15133;DHT22;7667;51.232;17.110;2023-09-12T06:05:58;15.70;99.90
15133;DHT22;7667;51.232;17.110;2023-09-12T06:08:25;15.80;99.90
15133;DHT22;7667;51.232;17.110;2023-09-12T06:10:53;16.00;99.90
15133;DHT22;7667;51.232;17.110;2023-09-12T06:13:22;16.10;99.90
15133;DHT22;7667;51.232;17.110;2023-09-12T06:15:49;16.20;99.90
15133;DHT22;7667;51.232;17.110;2023-09-12T06:18:17;16.30;99.90
15133;DHT22;7667;51.232;17.110;2023-09-12T06:20:45;16.40;99.90
15133;DHT22;7667;51.232;17.110;2023-09-12T06:23:13;16.60;99.90
15133;DHT22;7667;51.232;17.110;2023-09-12T06:25:40;16.70;99.90
15133;DHT22;7667;51.232;17.110;2023-09-12T06:28:09;16.90;99.90
15133;DHT22;7667;51.232;17.110;2023-09-12T06:30:39;17.00;99.90
15133;DHT22;7667;51.232;17.110;2023-09-12T06:33:07;17.20;99.90
15133;DHT22;7667;51.232;17.110;2023-09-12T06:35:34;17.30;99.90
15133;DHT22;7667;51.232;17.110;2023-09-12T06:38:05;17.40;99.90
15133;DHT22;7667;51.232;17.110;2023-09-12T06:40:33;17.50;99.90
15133;DHT22;7667;51.232;17.110;2023-09-12T06:43:00;17.60;99.90
15133;DHT22;7667;51.232;17.110;2023-09-12T06:45:28;17.80;99.90
15133;DHT22;7667;51.232;17.110;2023-09-12T06:47:56;17.90;99.90
15133;DHT22;7667;51.232;17.110;2023-09-12T06:50:24;18.00;99.90
15133;DHT22;7667;51.232;17.110;2023-09-12T06:52:57;18.10;99.90
15133;DHT22;7667;51.232;17.110;2023-09-12T06:55:24;18.30;99.90
15133;DHT22;7667;51.232;17.110;2023-09-12T06:57:52;18.40;99.90
15133;DHT22;7667;51.232;17.110;2023-09-12T07:00:20;18.60;99.90
15133;DHT22;7667;51.232;17.110;2023-09-12T07:02:47;18.80;99.90
15133;DHT22;7667;51.232;17.110;2023-09-12T07:05:15;18.90;99.90
15133;DHT22;7667;51.232;17.110;2023-09-12T07:07:43;19.10;99.90
15133;DHT22;7667;51.232;17.110;2023-09-12T07:10:10;19.20;99.90
15133;DHT22;7667;51.232;17.110;2023-09-12T07:12:52;19.40;99.90
15133;DHT22;7667;51.232;17.110;2023-09-12T07:15:21;19.50;99.90
15133;DHT22;7667;51.232;17.110;2023-09-12T07:17:49;19.60;99.90
15133;DHT22;7667;51.232;17.110;2023-09-12T07:20:17;19.70;99.90
15133;DHT22;7667;51.232;17.110;2023-09-12T07:22:45;19.90;99.90
15133;DHT22;7667;51.232;17.110;2023-09-12T07:25:14;20.00;99.90
15133;DHT22;7667;51.232;17.110;2023-09-12T07:27:41;20.20;99.90
15133;DHT22;7667;51.232;17.110;2023-09-12T07:30:10;20.30;99.90
15133;DHT22;7667;51.232;17.110;2023-09-12T07:32:38;20.50;99.90
15133;DHT22;7667;51.232;17.110;2023-09-12T07:35:06;20.60;99.90
15133;DHT22;7667;51.232;17.110;2023-09-12T07:37:34;20.60;99.90
15133;DHT22;7667;51.232;17.110;2023-09-12T07:40:02;20.70;99.90
15133;DHT22;7667;51.232;17.110;2023-09-12T07:42:37;20.80;99.90
15133;DHT22;7667;51.232;17.110;2023-09-12T07:45:08;20.90;99.90
15133;DHT22;7667;51.232;17.110;2023-09-12T07:47:36;21.10;99.90
15133;DHT22;7667;51.232;17.110;2023-09-12T07:50:04;21.20;99.90
15133;DHT22;7667;51.232;17.110;2023-09-12T07:52:33;21.40;99.90
15133;DHT22;7667;51.232;17.110;2023-09-12T07:55:04;21.60;99.90
15133;DHT22;7667;51.232;17.110;2023-09-12T07:57:34;21.70;99.90
15133;DHT22;7667;51.232;17.110;2023-09-12T08:00:05;21.80;99.90
15133;DHT22;7667;51.232;17.110;2023-09-12T08:02:37;21.90;99.90
15133;DHT22;7667;51.232;17.110;2023-09-12T08:05:05;22.10;99.90
15133;DHT22;7667;51.232;17.110;2023-09-12T08:07:34;22.30;99.90
15133;DHT22;7667;51.232;17.110;2023-09-12T08:10:03;22.50;99.90
15133;DHT22;7667;51.232;17.110;2023-09-12T08:12:31;22.60;99.90
15133;DHT22;7667;51.232;17.110;2023-09-12T08:14:59;22.80;99.90
15133;DHT22;7667;51.232;17.110;2023-09-12T08:17:27;23.10;99.90
15133;DHT22;7667;51.232;17.110;2023-09-12T08:19:55;23.20;99.90
15133;DHT22;7667;51.232;17.110;2023-09-12T08:22:22;23.40;99.90
15133;DHT22;7667;51.232;17.110;2023-09-12T08:24:50;23.50;99.90
15133;DHT22;7667;51.232;17.110;2023-09-12T08:27:17;23.60;99.90
15133;DHT22;7667;51.232;17.110;2023-09-12T08:29:45;23.70;99.90
15133;DHT22;7667;51.232;17.110;2023-09-12T08:32:15;23.80;99.90
15133;DHT22;7667;51.232;17.110;2023-09-12T08:34:43;23.90;99.90
15133;DHT22;7667;51.232;17.110;2023-09-12T08:37:10;24.10;99.90
15133;DHT22;7667;51.232;17.110;2023-09-12T08:39:43;24.10;99.90
15133;DHT22;7667;51.232;17.110;2023-09-12T08:42:16;24.20;99.90
15133;DHT22;7667;51.232;17.110;2023-09-12T08:44:45;24.30;99.90
15133;DHT22;7667;51.232;17.110;2023-09-12T08:47:14;24.60;99.90
15133;DHT22;7667;51.232;17.110;2023-09-12T08:49:43;24.60;99.90
15133;DHT22;7667;51.232;17.110;2023-09-12T08:52:11;24.70;99.90
15133;DHT22;7667;51.232;17.110;2023-09-12T08:54:38;24.90;99.90
15133;DHT22;7667;51.232;17.110;2023-09-12T08:57:07;25.00;99.90
15133;DHT22;7667;51.232;17.110;2023-09-12T08:59:36;25.20;99.90
15133;DHT22;7667;51.232;17.110;2023-09-12T09:02:08;25.40;99.90
15133;DHT22;7667;51.232;17.110;2023-09-12T09:04:39;25.70;99.90
15133;DHT22;7667;51.232;17.110;2023-09-12T09:07:08;25.80;99.90
15133;DHT22;7667;51.232;17.110;2023-09-12T09:09:38;26.00;99.90
15133;DHT22;7667;51.232;17.110;2023-09-12T09:12:09;26.20;99.90
15133;DHT22;7667;51.232;17.110;2023-09-12T09:14:37;26.30;99.90
15133;DHT22;7667;51.232;17.110;2023-09-12T09:17:05;26.50;99.90
15133;DHT22;7667;51.232;17.110;2023-09-12T09:19:41;26.40;99.90
15133;DHT22;7667;51.232;17.110;2023-09-12T09:22:13;26.60;99.90
15133;DHT22;7667;51.232;17.110;2023-09-12T09:24:40;26.60;99.90
15133;DHT22;7667;51.232;17.110;2023-09-12T09:27:08;26.80;99.90
15133;DHT22;7667;51.232;17.110;2023-09-12T09:29:48;26.90;99.90
15133;DHT22;7667;51.232;17.110;2023-09-12T09:32:19;26.80;99.90
15133;DHT22;7667;51.232;17.110;2023-09-12T09:34:49;26.80;99.90
15133;DHT22;7667;51.232;17.110;2023-09-12T09:37:17;26.90;99.90
15133;DHT22;7667;51.232;17.110;2023-09-12T09:39:48;27.20;99.90
15133;DHT22;7667;51.232;17.110;2023-09-12T09:42:19;27.30;99.90
15133;DHT22;7667;51.232;17.110;2023-09-12T09:44:48;27.70;99.90
15133;DHT22;7667;51.232;17.110;2023-09-12T09:47:18;27.90;99.90
15133;DHT22;7667;51.232;17.110;2023-09-12T09:49:46;27.90;99.90
15133;DHT22;7667;51.232;17.110;2023-09-12T09:52:14;28.00;99.90
15133;DHT22;7667;51.232;17.110;2023-09-12T09:54:45;28.20;99.90
15133;DHT22;7667;51.232;17.110;2023-09-12T09:57:13;28.30;99.90
15133;DHT22;7667;51.232;17.110;2023-09-12T09:59:41;28.50;99.90
15133;DHT22;7667;51.232;17.110;2023-09-12T10:02:16;28.60;99.90
15133;DHT22;7667;51.232;17.110;2023-09-12T10:04:48;28.80;99.90
15133;DHT22;7667;51.232;17.110;2023-09-12T10:07:27;28.80;99.90
15133;DHT22;7667;51.232;17.110;2023-09-12T10:09:56;28.70;99.90
15133;DHT22;7667;51.232;17.110;2023-09-12T10:12:25;28.70;99.90
15133;DHT22;7667;51.232;17.110;2023-09-12T10:14:59;29.00;99.90
15133;DHT22;7667;51.232;17.110;2023-09-12T10:17:36;29.20;99.90
15133;DHT22;7667;51.232;17.110;2023-09-12T10:20:09;29.50;99.90
15133;DHT22;7667;51.232;17.110;2023-09-12T10:22:54;29.60;99.90
15133;DHT22;7667;51.232;17.110;2023-09-12T10:25:28;29.60;99.90
15133;DHT22;7667;51.232;17.110;2023-09-12T10:27:57;29.50;99.50
15133;DHT22;7667;51.232;17.110;2023-09-12T10:30:24;29.60;99.90
15133;DHT22;7667;51.232;17.110;2023-09-12T10:32:54;29.60;96.00
15133;DHT22;7667;51.232;17.110;2023-09-12T10:35:22;29.20;97.40
15133;DHT22;7667;51.232;17.110;2023-09-12T10:37:51;29.20;99.90
15133;DHT22;7667;51.232;17.110;2023-09-12T10:40:21;29.20;92.90
15133;DHT22;7667;51.232;17.110;2023-09-12T10:42:50;29.20;93.00
15133;DHT22;7667;51.232;17.110;2023-09-12T10:45:19;29.50;94.10
15133;DHT22;7667;51.232;17.110;2023-09-12T10:47:47;29.90;94.60
15133;DHT22;7667;51.232;17.110;2023-09-12T10:50:16;30.10;97.10
15133;DHT22;7667;51.232;17.110;2023-09-12T10:52:45;30.10;94.10
15133;DHT22;7667;51.232;17.110;2023-09-12T10:55:17;30.10;91.80
15133;DHT22;7667;51.232;17.110;2023-09-12T10:58:10;30.10;88.50
15133;DHT22;7667;51.232;17.110;2023-09-12T11:00:37;30.10;79.80
15133;DHT22;7667;51.232;17.110;2023-09-12T11:05:56;29.50;74.10
15133;DHT22;7667;51.232;17.110;2023-09-12T11:08:24;29.30;77.70
15133;DHT22;7667;51.232;17.110;2023-09-12T11:11:17;29.00;79.00
15133;DHT22;7667;51.232;17.110;2023-09-12T11:14:04;29.10;81.30
15133;DHT22;7667;51.232;17.110;2023-09-12T11:16:33;29.40;79.50
15133;DHT22;7667;51.232;17.110;2023-09-12T11:21:50;29.90;76.00
15133;DHT22;7667;51.232;17.110;2023-09-12T11:24:20;29.90;74.90
15133;DHT22;7667;51.232;17.110;2023-09-12T11:26:58;30.20;71.90
15133;DHT22;7667;51.232;17.110;2023-09-12T11:29:35;30.30;69.70
15133;DHT22;7667;51.232;17.110;2023-09-12T11:32:05;30.60;68.20
15133;DHT22;7667;51.232;17.110;2023-09-12T11:34:38;30.90;70.00
15133;DHT22;7667;51.232;17.110;2023-09-12T11:37:09;31.40;83.00
15133;DHT22;7667;51.232;17.110;2023-09-12T11:39:38;32.20;78.80
15133;DHT22;7667;51.232;17.110;2023-09-12T11:42:11;32.70;71.20
15133;DHT22;7667;51.232;17.110;2023-09-12T11:44:40;33.30;62.40
15133;DHT22;7667;51.232;17.110;2023-09-12T11:47:08;34.10;73.40
15133;DHT22;7667;51.232;17.110;2023-09-12T11:49:41;34.40;60.60
15133;DHT22;7667;51.232;17.110;2023-09-12T11:52:14;33.90;60.80
15133;DHT22;7667;51.232;17.110;2023-09-12T11:54:47;33.80;61.10
15133;DHT22;7667;51.232;17.110;2023-09-12T11:57:15;34.20;64.50
15133;DHT22;7667;51.232;17.110;2023-09-12T11:59:44;34.50;58.80
15133;DHT22;7667;51.232;17.110;2023-09-12T12:02:16;33.80;57.20
15133;DHT22;7667;51.232;17.110;2023-09-12T12:04:43;34.10;60.90
15133;DHT22;7667;51.232;17.110;2023-09-12T12:07:12;33.80;56.60
15133;DHT22;7667;51.232;17.110;2023-09-12T12:09:40;33.70;57.90
15133;DHT22;7667;51.232;17.110;2023-09-12T12:12:14;34.00;59.90
15133;DHT22;7667;51.232;17.110;2023-09-12T12:14:42;34.90;63.10
15133;DHT22;7667;51.232;17.110;2023-09-12T12:17:12;35.30;59.30
15133;DHT22;7667;51.232;17.110;2023-09-12T12:19:45;35.70;59.90
15133;DHT22;7667;51.232;17.110;2023-09-12T12:22:13;35.90;58.20
15133;DHT22;7667;51.232;17.110;2023-09-12T12:24:49;36.00;52.90
15133;DHT22;7667;51.232;17.110;2023-09-12T12:27:18;36.10;54.10
15133;DHT22;7667;51.232;17.110;2023-09-12T12:29:46;36.60;55.90
15133;DHT22;7667;51.232;17.110;2023-09-12T12:32:15;36.50;53.20
15133;DHT22;7667;51.232;17.110;2023-09-12T12:34:48;35.20;55.10
15133;DHT22;7667;51.232;17.110;2023-09-12T12:37:37;35.40;59.20
15133;DHT22;7667;51.232;17.110;2023-09-12T12:40:05;36.90;58.60
15133;DHT22;7667;51.232;17.110;2023-09-12T12:42:37;38.10;57.20
15133;DHT22;7667;51.232;17.110;2023-09-12T12:45:24;39.20;53.00
15133;DHT22;7667;51.232;17.110;2023-09-12T12:47:59;39.60;53.40
15133;DHT22;7667;51.232;17.110;2023-09-12T12:50:28;39.80;52.60
15133;DHT22;7667;51.232;17.110;2023-09-12T12:52:55;40.40;54.00
15133;DHT22;7667;51.232;17.110;2023-09-12T12:55:26;40.20;52.00
15133;DHT22;7667;51.232;17.110;2023-09-12T12:57:53;39.20;51.10
15133;DHT22;7667;51.232;17.110;2023-09-12T13:00:21;37.30;50.80
15133;DHT22;7667;51.232;17.110;2023-09-12T13:02:50;36.50;54.00
15133;DHT22;7667;51.232;17.110;2023-09-12T13:05:28;34.80;53.30
15133;DHT22;7667;51.232;17.110;2023-09-12T13:07:57;34.60;54.30
15133;DHT22;7667;51.232;17.110;2023-09-12T13:10:25;34.40;55.40
15133;DHT22;7667;51.232;17.110;2023-09-12T13:12:53;34.90;53.80
15133;DHT22;7667;51.232;17.110;2023-09-12T13:15:20;35.30;55.00
15133;DHT22;7667;51.232;17.110;2023-09-12T13:17:48;35.40;57.20
15133;DHT22;7667;51.232;17.110;2023-09-12T13:20:16;35.90;55.30
15133;DHT22;7667;51.232;17.110;2023-09-12T13:22:44;36.30;53.40
15133;DHT22;7667;51.232;17.110;2023-09-12T13:25:11;35.80;54.60
15133;DHT22;7667;51.232;17.110;2023-09-12T13:27:39;35.00;56.90
15133;DHT22;7667;51.232;17.110;2023-09-12T13:30:07;34.90;55.10
15133;DHT22;7667;51.232;17.110;2023-09-12T13:32:35;35.10;53.50
15133;DHT22;7667;51.232;17.110;2023-09-12T13:35:02;35.60;53.20
15133;DHT22;7667;51.232;17.110;2023-09-12T13:37:30;36.50;56.50
15133;DHT22;7667;51.232;17.110;2023-09-12T13:39:58;36.90;52.00
15133;DHT22;7667;51.232;17.110;2023-09-12T13:42:26;35.90;58.30
15133;DHT22;7667;51.232;17.110;2023-09-12T13:44:58;35.90;52.40
15133;DHT22;7667;51.232;17.110;2023-09-12T13:47:25;35.50;52.00
15133;DHT22;7667;51.232;17.110;2023-09-12T13:49:53;35.00;53.70
15133;DHT22;7667;51.232;17.110;2023-09-12T13:52:21;35.50;51.30
15133;DHT22;7667;51.232;17.110;2023-09-12T13:54:49;36.20;56.50
15133;DHT22;7667;51.232;17.110;2023-09-12T13:57:17;37.20;53.70
15133;DHT22;7667;51.232;17.110;2023-09-12T13:59:44;38.00;52.50
15133;DHT22;7667;51.232;17.110;2023-09-12T14:02:13;38.20;54.10
15133;DHT22;7667;51.232;17.110;2023-09-12T14:04:41;38.60;50.30
15133;DHT22;7667;51.232;17.110;2023-09-12T14:07:10;37.60;52.80
15133;DHT22;7667;51.232;17.110;2023-09-12T14:09:39;36.70;53.50
15133;DHT22;7667;51.232;17.110;2023-09-12T14:12:07;35.90;52.00
15133;DHT22;7667;51.232;17.110;2023-09-12T14:14:50;35.20;52.80
15133;DHT22;7667;51.232;17.110;2023-09-12T14:17:33;35.50;51.90
15133;DHT22;7667;51.232;17.110;2023-09-12T14:20:02;36.60;56.10
15133;DHT22;7667;51.232;17.110;2023-09-12T14:22:31;37.50;51.40
15133;DHT22;7667;51.232;17.110;2023-09-12T14:24:59;37.50;50.50
15133;DHT22;7667;51.232;17.110;2023-09-12T14:27:29;37.60;49.30
15133;DHT22;7667;51.232;17.110;2023-09-12T14:29:56;38.60;48.90
15133;DHT22;7667;51.232;17.110;2023-09-12T14:32:26;39.50;53.50
15133;DHT22;7667;51.232;17.110;2023-09-12T14:34:54;38.50;47.70
15133;DHT22;7667;51.232;17.110;2023-09-12T14:37:21;38.60;51.90
15133;DHT22;7667;51.232;17.110;2023-09-12T14:39:54;37.60;49.00
15133;DHT22;7667;51.232;17.110;2023-09-12T14:42:23;37.20;50.70
15133;DHT22;7667;51.232;17.110;2023-09-12T14:44:51;37.40;49.40
15133;DHT22;7667;51.232;17.110;2023-09-12T14:47:19;36.50;50.50
15133;DHT22;7667;51.232;17.110;2023-09-12T14:49:46;35.60;52.90
15133;DHT22;7667;51.232;17.110;2023-09-12T14:52:18;35.70;53.60
15133;DHT22;7667;51.232;17.110;2023-09-12T14:54:54;35.90;54.30
15133;DHT22;7667;51.232;17.110;2023-09-12T14:57:21;35.70;51.60
15133;DHT22;7667;51.232;17.110;2023-09-12T14:59:51;35.30;52.30
15133;DHT22;7667;51.232;17.110;2023-09-12T15:02:18;36.40;54.70
15133;DHT22;7667;51.232;17.110;2023-09-12T15:04:46;36.50;50.70
15133;DHT22;7667;51.232;17.110;2023-09-12T15:07:14;36.10;50.70
15133;DHT22;7667;51.232;17.110;2023-09-12T15:09:41;35.20;51.60
15133;DHT22;7667;51.232;17.110;2023-09-12T15:12:09;35.60;54.00
15133;DHT22;7667;51.232;17.110;2023-09-12T15:14:37;36.10;53.00
15133;DHT22;7667;51.232;17.110;2023-09-12T15:17:04;37.30;53.00
15133;DHT22;7667;51.232;17.110;2023-09-12T15:19:32;38.10;52.10
15133;DHT22;7667;51.232;17.110;2023-09-12T15:22:00;37.80;49.80
15133;DHT22;7667;51.232;17.110;2023-09-12T15:24:27;37.30;49.90
15133;DHT22;7667;51.232;17.110;2023-09-12T15:26:55;38.00;48.60
15133;DHT22;7667;51.232;17.110;2023-09-12T15:29:22;38.90;46.80
15133;DHT22;7667;51.232;17.110;2023-09-12T15:31:50;38.60;49.70
15133;DHT22;7667;51.232;17.110;2023-09-12T15:34:18;38.30;50.20
15133;DHT22;7667;51.232;17.110;2023-09-12T15:36:47;37.70;51.50
15133;DHT22;7667;51.232;17.110;2023-09-12T15:39:15;36.80;54.60
15133;DHT22;7667;51.232;17.110;2023-09-12T15:41:42;36.70;55.80
15133;DHT22;7667;51.232;17.110;2023-09-12T15:44:10;36.20;56.90
15133;DHT22;7667;51.232;17.110;2023-09-12T15:46:42;36.30;56.10
15133;DHT22;7667;51.232;17.110;2023-09-12T15:49:10;36.00;55.80
15133;DHT22;7667;51.232;17.110;2023-09-12T15:51:38;35.50;55.00